Livonia, MI (48154)

5:06 AM EDT on June 30, 2015 (GMT -0400)
Windridge Village | | Change Station
CLOSE
Current Station
Personal Weather Station
Location: Livonia, MI
Elevation: 696 ft
Nearby Weather Stations

Elev 696 ft 42.43 °N, 83.38 °W | Updated 2 minutes ago

Overcast
Overcast
63.7 °F
Feels Like 63.7 °F
N
3.7
Wind Variable Wind from East

Today
High -- | Low -- °F
--% Chance of Precip.
Yesterday
High -- | Low -- °F
Precip. -- in
5:59 AM 9:14 PM
Waxing Gibbous, 96% visible
Pressure 29.78 in
Visibility 8.0 miles
Clouds Overcast 2100 ft
Dew Point 59 °F
Humidity 85%
Rainfall 0.00 in
Snow Depth Not available.
UV 0 out of 12
Pollen 1.40 out of 12
Air Quality Not available.
Flu Activity Sporadic
METAR KYIP 300853Z AUTO 09004KT 8SM OVC021 19/16 A2980 RMK AO2 SLP083 60001 T01890156 58010 TSNO

More Conditions Fewer Conditions

Pressure 29.78 in
Visibility 8.0 miles
Clouds Overcast 2100 ft
Dew Point 59 °F
Humidity 85%
Rainfall 0.00 in
Snow Depth Not available.
UV 0 out of 12
Pollen 1.40 out of 12
Air Quality Not available.
Flu Activity Sporadic
METAR KYIP 300853Z AUTO 09004KT 8SM OVC021 19/16 A2980 RMK AO2 SLP083 60001 T01890156 58010 TSNO

More Conditions Fewer Conditions

10-Day Weather Forecast

×

Almanac

Astronomy

Jun. 30, 2015 Rise Set
Actual Time
Civil Twilight
Nautical Twilight
Astronomical Twilight
Moon
Length of Visible Light
Length of Day
Tomorrow will be .
, % of the Moon is Illuminated

Today's Extremes

State Highs State Lows

Community

WunderPhotos

Upload Photos

1,833,983 photos uploaded!

WunderBlogs® & News

Nearby

Air Quality

  Air Quality AQ Index Pollutant
Not available.

Snow Depth

Station Depth Elevation

Earthquake Activity

City Distance Mag. Time & Date
Minimum magnitude displayed is 2.5.

Coastal Water Temperatures

Place Temperature

Stations

Nearby Weather Stations

Station Location Temp. Windchill Dew Point Humidity Wind Precip. Elev Updated Type